createdAt,value
2023-05-10T00:02:00.435Z,14.01
2023-05-10T00:04:34.452Z,13.81
2023-05-10T00:07:04.203Z,13.66
2023-05-10T00:09:32.353Z,13.84
2023-05-10T00:12:01.161Z,13.82
2023-05-10T00:14:29.472Z,13.69
2023-05-10T00:16:57.990Z,13.70
2023-05-10T00:19:28.258Z,13.77
2023-05-10T00:21:56.654Z,13.88
2023-05-10T00:24:26.401Z,14.03
2023-05-10T00:26:57.089Z,14.07
2023-05-10T00:29:27.826Z,14.09
2023-05-10T00:32:04.394Z,13.99
2023-05-10T00:34:35.985Z,13.86
2023-05-10T00:37:10.119Z,13.76
2023-05-10T00:39:39.976Z,13.96
2023-05-10T00:42:08.354Z,13.97
2023-05-10T00:44:36.866Z,13.83
2023-05-10T00:47:05.539Z,13.81
2023-05-10T00:49:34.012Z,13.81
2023-05-10T00:52:03.118Z,13.98
2023-05-10T00:54:32.347Z,14.00
2023-05-10T00:57:07.862Z,13.85
2023-05-10T00:59:41.915Z,13.81
2023-05-10T01:02:10.323Z,13.90
2023-05-10T01:04:39.912Z,13.91
2023-05-10T01:07:20.193Z,13.85
2023-05-10T01:09:53.237Z,13.78
2023-05-10T01:12:23.423Z,13.85
2023-05-10T01:14:52.056Z,13.87
2023-05-10T01:17:22.082Z,13.87
2023-05-10T01:19:51.058Z,13.69
2023-05-10T01:22:53.768Z,13.61
2023-05-10T01:25:51.157Z,13.81
2023-05-10T01:28:53.778Z,13.80
2023-05-10T01:31:41.494Z,13.69
2023-05-10T01:34:15.309Z,13.85
2023-05-10T01:36:53.401Z,13.77
2023-05-10T01:39:34.865Z,13.63
2023-05-10T01:42:10.365Z,13.66
2023-05-10T01:44:46.302Z,13.62
2023-05-10T01:47:19.375Z,13.46
2023-05-10T01:49:54.180Z,13.52
2023-05-10T01:52:29.143Z,13.53
2023-05-10T01:55:04.165Z,13.52
2023-05-10T01:57:37.160Z,13.54
2023-05-10T02:00:08.999Z,13.39
2023-05-10T02:02:43.129Z,13.38
2023-05-10T02:05:16.843Z,13.01
2023-05-10T02:07:46.499Z,12.94
2023-05-10T02:10:18.082Z,12.94
2023-05-10T02:12:50.705Z,12.79
2023-05-10T02:15:23.256Z,12.82
2023-05-10T02:17:52.094Z,12.74
2023-05-10T02:20:24.452Z,12.85
2023-05-10T02:22:56.304Z,12.77
2023-05-10T02:25:26.661Z,12.85
2023-05-10T02:27:58.062Z,12.91
2023-05-10T02:30:27.402Z,12.86
2023-05-10T02:32:59.855Z,12.78
2023-05-10T02:35:30.982Z,12.75
2023-05-10T02:38:01.298Z,12.79
2023-05-10T02:40:30.729Z,12.79
2023-05-10T02:43:03.573Z,12.73
2023-05-10T02:45:34.301Z,12.69
2023-05-10T02:48:02.473Z,12.66
2023-05-10T02:50:35.590Z,12.57
2023-05-10T02:53:11.137Z,12.46
2023-05-10T02:55:42.609Z,12.47
2023-05-10T02:58:10.596Z,12.43
2023-05-10T03:00:41.168Z,12.34
2023-05-10T03:03:09.431Z,12.35
2023-05-10T03:05:38.765Z,12.24
2023-05-10T03:08:07.324Z,12.28
2023-05-10T03:10:43.818Z,12.28
2023-05-10T03:13:24.116Z,12.26
2023-05-10T03:16:03.873Z,12.22
2023-05-10T03:18:46.344Z,12.19
2023-05-10T03:21:20.026Z,12.19
2023-05-10T03:23:58.805Z,12.13
2023-05-10T03:26:29.617Z,12.18
2023-05-10T03:28:59.929Z,12.11
2023-05-10T03:31:28.167Z,12.11
2023-05-10T03:33:58.332Z,12.00
2023-05-10T03:36:27.641Z,12.01
2023-05-10T03:38:55.598Z,11.94
2023-05-10T03:41:23.424Z,11.94
2023-05-10T03:43:51.290Z,11.91
2023-05-10T03:46:19.158Z,11.90
2023-05-10T03:48:47.101Z,11.84
2023-05-10T03:51:14.970Z,11.78
2023-05-10T03:53:44.141Z,11.75
2023-05-10T03:56:11.953Z,11.66
2023-05-10T03:58:39.754Z,11.72
2023-05-10T04:01:07.614Z,11.62
2023-05-10T04:03:36.590Z,11.66
2023-05-10T04:06:04.856Z,11.56
2023-05-10T04:08:33.226Z,11.56
2023-05-10T04:11:09.443Z,11.58
2023-05-10T04:13:37.598Z,11.53
2023-05-10T04:16:06.283Z,11.45
2023-05-10T04:18:34.103Z,11.50
2023-05-10T04:21:01.912Z,11.55
2023-05-10T04:23:29.928Z,11.47
2023-05-10T04:26:02.728Z,11.41
2023-05-10T04:28:32.003Z,11.35
2023-05-10T04:31:03.740Z,11.35
2023-05-10T04:33:31.971Z,11.35
2023-05-10T04:36:00.075Z,11.34
2023-05-10T04:38:27.995Z,11.33
2023-05-10T04:40:56.213Z,11.23
2023-05-10T04:43:24.016Z,11.23
2023-05-10T04:45:53.280Z,11.23
2023-05-10T04:48:21.074Z,11.27
2023-05-10T04:50:48.852Z,11.21
2023-05-10T04:53:16.633Z,11.22
2023-05-10T04:55:44.536Z,11.25
2023-05-10T04:58:12.287Z,11.21
2023-05-10T05:00:40.202Z,11.30
2023-05-10T05:03:09.615Z,11.30
2023-05-10T05:05:37.552Z,11.28
2023-05-10T05:08:05.936Z,11.28
2023-05-10T05:10:33.997Z,11.33
2023-05-10T05:13:01.978Z,11.35
2023-05-10T05:15:30.976Z,11.45
2023-05-10T05:17:58.920Z,11.47
2023-05-10T05:20:28.416Z,11.54
2023-05-10T05:22:56.232Z,11.55
2023-05-10T05:25:24.153Z,11.64
2023-05-10T05:27:51.914Z,11.63
2023-05-10T05:30:19.796Z,11.66
2023-05-10T05:32:48.032Z,11.71
2023-05-10T05:35:16.304Z,11.67
2023-05-10T05:37:45.662Z,11.57
2023-05-10T05:40:15.048Z,11.64
2023-05-10T05:42:42.927Z,11.69
2023-05-10T05:45:14.212Z,11.65
2023-05-10T05:47:42.409Z,11.62
2023-05-10T05:50:13.171Z,11.61
2023-05-10T05:52:41.026Z,11.63
2023-05-10T05:55:10.655Z,11.63
2023-05-10T05:57:41.476Z,11.65
2023-05-10T06:00:13.081Z,11.65
2023-05-10T06:02:41.196Z,11.78
2023-05-10T06:05:10.061Z,11.83
2023-05-10T06:07:37.902Z,11.85
2023-05-10T06:10:06.817Z,11.86
2023-05-10T06:12:36.005Z,11.91
2023-05-10T06:15:04.254Z,12.00
2023-05-10T06:17:32.162Z,11.97
2023-05-10T06:19:59.974Z,11.98
2023-05-10T06:22:27.979Z,12.01
2023-05-10T06:24:55.760Z,11.99
2023-05-10T06:27:24.110Z,11.97
2023-05-10T06:30:02.090Z,11.97
2023-05-10T06:32:37.399Z,12.13
2023-05-10T06:35:05.710Z,12.06
2023-05-10T06:37:33.535Z,12.13
2023-05-10T06:40:01.497Z,12.19
2023-05-10T06:42:29.378Z,12.21
2023-05-10T06:44:58.555Z,12.20
2023-05-10T06:47:26.845Z,12.14
2023-05-10T06:49:54.715Z,12.15
2023-05-10T06:52:22.577Z,12.12
2023-05-10T06:54:50.783Z,12.14
2023-05-10T06:57:30.539Z,12.24
2023-05-10T07:00:01.897Z,12.25
2023-05-10T07:02:30.206Z,12.19
2023-05-10T07:05:00.894Z,12.20
2023-05-10T07:07:30.813Z,12.23
2023-05-10T07:09:58.768Z,12.20
2023-05-10T07:12:27.063Z,12.13
2023-05-10T07:14:55.418Z,12.03
2023-05-10T07:17:24.669Z,12.05
2023-05-10T07:19:52.691Z,12.01
2023-05-10T07:22:20.551Z,12.03
2023-05-10T07:24:48.375Z,12.05
2023-05-10T07:27:16.210Z,12.12
2023-05-10T07:29:44.038Z,12.09
2023-05-10T07:32:11.912Z,12.14
2023-05-10T07:34:43.582Z,12.09
2023-05-10T07:37:11.403Z,12.13
2023-05-10T07:39:42.389Z,12.25
2023-05-10T07:42:10.381Z,12.34
2023-05-10T07:44:38.226Z,12.52
2023-05-10T07:47:06.201Z,12.50
2023-05-10T07:49:34.012Z,12.42
2023-05-10T07:52:04.815Z,12.48
2023-05-10T07:54:32.815Z,12.51
2023-05-10T07:57:00.744Z,12.50
2023-05-10T07:59:28.850Z,12.64
2023-05-10T08:01:57.151Z,12.80
2023-05-10T08:04:25.260Z,12.83
2023-05-10T08:06:53.169Z,13.03
2023-05-10T08:09:25.100Z,13.08
2023-05-10T08:11:53.209Z,13.17
2023-05-10T08:14:30.132Z,13.27
2023-05-10T08:16:58.428Z,13.27
2023-05-10T08:19:26.286Z,13.45
2023-05-10T08:21:56.458Z,13.46
2023-05-10T08:24:25.929Z,13.39
2023-05-10T08:26:56.053Z,13.48
2023-05-10T08:29:24.013Z,13.66
2023-05-10T08:31:55.822Z,13.83
2023-05-10T08:34:23.765Z,14.21
2023-05-10T08:36:51.937Z,14.32
2023-05-10T08:39:29.745Z,14.25
2023-05-10T08:42:04.647Z,14.17
2023-05-10T08:44:36.196Z,13.97
2023-05-10T08:47:08.474Z,14.40
2023-05-10T08:49:37.119Z,14.72
2023-05-10T08:52:06.464Z,14.70
2023-05-10T08:54:38.430Z,14.94
2023-05-10T08:57:08.048Z,14.86
2023-05-10T08:59:36.309Z,14.78
2023-05-10T09:02:06.797Z,14.75
2023-05-10T09:04:35.023Z,14.53
2023-05-10T09:07:03.184Z,14.56
2023-05-10T09:09:31.343Z,14.34
2023-05-10T09:11:59.238Z,14.55
2023-05-10T09:14:29.021Z,14.42
2023-05-10T09:16:58.532Z,14.47
2023-05-10T09:19:28.822Z,14.84
2023-05-10T09:21:56.781Z,14.96
2023-05-10T09:24:28.825Z,14.63
2023-05-10T09:26:59.382Z,14.53
2023-05-10T09:29:28.600Z,14.36
2023-05-10T09:31:56.548Z,14.45
2023-05-10T10:24:46.575Z,15.03
2023-05-10T10:27:25.708Z,15.01
2023-05-10T10:30:06.010Z,14.67
2023-05-10T10:32:52.222Z,14.15
2023-05-10T10:35:20.486Z,14.19
2023-05-10T10:37:52.083Z,14.14
2023-05-10T10:40:30.441Z,14.17
2023-05-10T10:43:00.522Z,14.25
2023-05-10T10:45:28.465Z,14.43
2023-05-10T10:48:24.138Z,14.35
2023-05-10T10:51:02.324Z,14.20
2023-05-10T10:53:30.492Z,14.13
2023-05-10T10:56:10.291Z,14.03
2023-05-10T10:58:40.334Z,13.97
2023-05-10T11:01:14.153Z,13.96
2023-05-10T11:03:44.801Z,14.03
2023-05-10T11:06:12.744Z,14.05
2023-05-10T11:08:45.952Z,14.01
2023-05-10T11:11:17.365Z,13.98
2023-05-10T11:13:50.815Z,13.98
2023-05-10T11:16:21.604Z,14.18
2023-05-10T11:19:12.486Z,14.21
2023-05-10T11:21:51.852Z,14.22
2023-05-10T11:24:21.943Z,14.72
2023-05-10T11:26:53.333Z,14.53
2023-05-10T11:29:30.215Z,14.37
2023-05-10T11:31:59.995Z,14.53
2023-05-10T11:34:30.571Z,14.81
2023-05-10T11:36:59.410Z,14.80
2023-05-10T11:39:29.665Z,14.76
2023-05-10T11:42:00.334Z,14.72
2023-05-10T11:44:32.435Z,14.67
2023-05-10T11:47:04.540Z,14.69
2023-05-10T11:49:33.014Z,14.42
2023-05-10T11:52:08.376Z,14.29
2023-05-10T11:54:36.979Z,14.48
2023-05-10T11:57:06.756Z,14.37
2023-05-10T11:59:34.628Z,14.05
2023-05-10T12:02:04.228Z,14.26
2023-05-10T12:04:33.051Z,14.33
2023-05-10T12:07:01.411Z,14.30
2023-05-10T12:09:42.724Z,14.20
2023-05-10T12:12:18.394Z,14.20
2023-05-10T12:14:46.271Z,14.25
2023-05-10T12:17:14.504Z,14.15
2023-05-10T12:19:44.759Z,14.18
2023-05-10T12:22:12.712Z,14.26
2023-05-10T12:24:40.616Z,14.34
2023-05-10T12:27:10.754Z,14.43
2023-05-10T12:29:45.840Z,14.17
2023-05-10T12:32:13.830Z,14.09
2023-05-10T12:34:41.754Z,14.00
2023-05-10T12:37:09.688Z,13.93
2023-05-10T12:39:42.100Z,13.87
2023-05-10T12:42:13.613Z,13.98
2023-05-10T12:44:42.927Z,13.92
2023-05-10T12:47:13.637Z,13.74
2023-05-10T12:49:41.579Z,13.81
2023-05-10T12:52:09.437Z,13.81
2023-05-10T12:54:37.348Z,13.86
2023-05-10T12:57:05.344Z,14.05
2023-05-10T12:59:33.934Z,13.95
2023-05-10T13:02:04.085Z,13.82
2023-05-10T13:04:31.997Z,13.78
2023-05-10T13:07:00.199Z,13.87
2023-05-10T13:09:30.364Z,13.95
2023-05-10T13:11:58.345Z,13.81
2023-05-10T13:14:26.744Z,13.78
2023-05-10T13:16:54.862Z,13.77
2023-05-10T13:19:24.223Z,13.86
2023-05-10T13:21:52.649Z,13.92
2023-05-10T13:24:20.576Z,13.95
2023-05-10T13:26:48.489Z,14.18
2023-05-10T13:29:20.176Z,14.38
2023-05-10T13:31:48.223Z,14.34
2023-05-10T13:34:16.130Z,14.54
2023-05-10T13:36:45.985Z,14.49
2023-05-10T13:39:13.912Z,14.42
2023-05-10T13:41:42.063Z,14.34
2023-05-10T13:44:12.275Z,14.14
2023-05-10T13:46:40.293Z,14.02
2023-05-10T13:49:08.328Z,13.80
2023-05-10T13:51:37.081Z,13.77
2023-05-10T13:54:06.401Z,13.95
2023-05-10T13:56:34.420Z,13.88
2023-05-10T13:59:02.949Z,13.88
2023-05-10T14:01:30.908Z,13.76
2023-05-10T14:03:58.916Z,13.48
2023-05-10T14:06:27.999Z,13.30
2023-05-10T14:08:56.262Z,13.31
2023-05-10T14:11:25.780Z,13.20
2023-05-10T14:13:53.686Z,13.14
2023-05-10T14:16:21.759Z,13.14
2023-05-10T14:18:50.185Z,13.27
2023-05-10T14:21:18.171Z,13.25
2023-05-10T14:23:46.107Z,13.12
2023-05-10T14:26:13.961Z,13.26
2023-05-10T14:28:43.299Z,13.32
2023-05-10T14:31:11.255Z,13.42
2023-05-10T14:33:39.181Z,13.48
2023-05-10T14:36:07.830Z,13.57
2023-05-10T14:38:35.790Z,13.58
2023-05-10T14:41:03.672Z,13.65
2023-05-10T14:43:32.060Z,13.59
2023-05-10T14:46:01.418Z,13.61
2023-05-10T14:48:29.369Z,13.47
2023-05-10T14:50:57.226Z,13.33
2023-05-10T14:53:25.157Z,13.53
2023-05-10T14:55:53.321Z,13.58
2023-05-10T14:58:21.196Z,13.64
2023-05-10T15:00:52.018Z,13.49
2023-05-10T15:03:22.384Z,13.47
2023-05-10T15:05:50.740Z,13.64
2023-05-10T15:08:18.598Z,13.68
2023-05-10T15:10:46.489Z,13.64
2023-05-10T15:13:14.384Z,13.49
2023-05-10T15:15:42.459Z,13.55
2023-05-10T15:18:10.983Z,13.53
2023-05-10T15:20:40.486Z,13.59
2023-05-10T15:23:08.358Z,13.62
2023-05-10T15:25:39.575Z,13.66
2023-05-10T15:28:09.872Z,13.66
2023-05-10T15:30:37.794Z,13.60
2023-05-10T15:33:05.750Z,13.67
2023-05-10T15:35:34.377Z,13.71
2023-05-10T15:38:03.558Z,13.65
2023-05-10T15:40:31.485Z,13.63
2023-05-10T15:42:59.458Z,13.73
2023-05-10T15:45:30.423Z,13.79
2023-05-10T15:47:58.440Z,13.63
2023-05-10T15:50:26.343Z,13.58
2023-05-10T15:52:54.242Z,13.50
2023-05-10T15:55:23.445Z,13.49
2023-05-10T15:57:51.381Z,13.43
2023-05-10T16:00:19.812Z,13.47
2023-05-10T16:02:47.984Z,13.37
2023-05-10T16:05:17.009Z,13.35
2023-05-10T16:07:45.387Z,13.16
2023-05-10T16:10:13.290Z,13.08
2023-05-10T16:12:42.632Z,13.00
2023-05-10T16:15:11.432Z,12.87
2023-05-10T16:17:39.485Z,12.94
2023-05-10T16:20:08.764Z,12.90
2023-05-10T16:22:36.892Z,12.87
2023-05-10T16:25:05.468Z,12.84
2023-05-10T16:27:33.898Z,12.83
2023-05-10T16:30:03.241Z,12.88
2023-05-10T16:32:33.892Z,12.89
2023-05-10T16:35:01.958Z,12.95
2023-05-10T16:37:29.983Z,12.82
2023-05-10T16:39:57.833Z,12.84
2023-05-10T16:42:26.136Z,12.78
2023-05-10T16:44:55.020Z,12.73
2023-05-10T16:47:26.735Z,12.86
2023-05-10T16:49:54.856Z,12.82
2023-05-10T16:52:23.788Z,12.81
2023-05-10T16:54:51.665Z,12.77
2023-05-10T16:57:19.505Z,12.74
2023-05-10T16:59:47.343Z,12.71
2023-05-10T17:02:15.677Z,12.79
2023-05-10T17:04:45.050Z,12.76
2023-05-10T17:07:13.257Z,12.74
2023-05-10T17:09:41.839Z,12.58
2023-05-10T17:12:09.792Z,12.45
2023-05-10T17:14:38.602Z,12.51
2023-05-10T17:17:06.815Z,12.41
2023-05-10T17:19:35.082Z,12.40
2023-05-10T17:22:04.478Z,12.45
2023-05-10T17:24:33.050Z,12.42
2023-05-10T17:27:03.532Z,12.33
2023-05-10T17:29:32.177Z,12.33
2023-05-10T17:32:00.713Z,12.33
2023-05-10T17:34:28.836Z,12.34
2023-05-10T17:36:57.585Z,12.25
2023-05-10T17:39:26.959Z,12.35
2023-05-10T17:41:54.911Z,12.34
2023-05-10T17:44:22.870Z,12.33
2023-05-10T17:46:50.739Z,12.35
2023-05-10T17:49:18.706Z,12.32
2023-05-10T17:51:48.060Z,12.31
2023-05-10T17:54:16.606Z,12.33
2023-05-10T17:56:46.334Z,12.40
2023-05-10T17:59:14.256Z,12.44
2023-05-10T18:01:42.558Z,12.43
2023-05-10T18:04:10.450Z,12.40
2023-05-10T18:06:39.120Z,12.47
2023-05-10T18:09:07.454Z,12.52
2023-05-10T18:11:36.448Z,12.50
2023-05-10T18:14:05.773Z,12.24
2023-05-10T18:16:33.718Z,12.26
2023-05-10T18:19:01.774Z,12.21
2023-05-10T18:21:29.750Z,12.23
2023-05-10T18:23:57.737Z,12.21
2023-05-10T18:26:26.074Z,12.18
2023-05-10T18:28:53.977Z,12.18
2023-05-10T18:31:23.766Z,12.05
2023-05-10T18:33:51.813Z,12.03
2023-05-10T18:36:19.791Z,12.05
2023-05-10T18:38:47.857Z,12.09
2023-05-10T18:41:16.187Z,12.00
2023-05-10T18:43:44.350Z,11.91
2023-05-10T18:46:12.304Z,11.99
2023-05-10T18:48:41.830Z,11.90
2023-05-10T18:51:10.403Z,11.89
2023-05-10T18:53:38.515Z,11.85
2023-05-10T18:56:07.252Z,11.75
2023-05-10T18:58:36.058Z,11.84
2023-05-10T19:01:04.042Z,11.79
2023-05-10T19:03:31.989Z,11.84
2023-05-10T19:06:01.362Z,11.85
2023-05-10T19:08:29.631Z,11.81
2023-05-10T19:10:57.663Z,11.83
2023-05-10T19:13:27.619Z,11.89
2023-05-10T19:16:06.689Z,11.93
2023-05-10T19:18:35.142Z,12.06
2023-05-10T19:21:09.394Z,12.00
2023-05-10T19:23:39.725Z,12.00
2023-05-10T19:26:08.882Z,12.10
2023-05-10T19:28:37.810Z,12.19
2023-05-10T19:31:06.269Z,12.09
2023-05-10T19:33:34.334Z,12.18
2023-05-10T19:36:02.342Z,12.06
2023-05-10T19:38:31.811Z,12.16
2023-05-10T19:41:00.111Z,12.27
2023-05-10T19:43:31.445Z,12.24
2023-05-10T19:46:03.034Z,12.14
2023-05-10T19:48:32.122Z,11.95
2023-05-10T19:51:02.363Z,12.02
2023-05-10T19:53:32.465Z,12.03
2023-05-10T19:56:05.375Z,12.04
2023-05-10T19:58:33.706Z,11.98
2023-05-10T20:01:02.275Z,11.80
2023-05-10T20:03:30.555Z,11.89
2023-05-10T20:05:58.593Z,11.91
2023-05-10T20:08:26.700Z,11.88
2023-05-10T20:10:57.843Z,11.89
2023-05-10T20:13:25.929Z,11.88
2023-05-10T20:15:56.880Z,11.89
2023-05-10T20:18:25.122Z,11.94
2023-05-10T20:20:56.133Z,11.88
2023-05-10T20:23:24.388Z,11.84
2023-05-10T20:25:52.870Z,11.94
2023-05-10T20:28:25.346Z,11.91
2023-05-10T20:30:55.645Z,11.98
2023-05-10T20:33:23.888Z,12.02
2023-05-10T20:35:52.504Z,11.93
2023-05-10T20:38:21.400Z,12.00
2023-05-10T20:40:49.550Z,11.90
2023-05-10T20:43:18.820Z,11.95
2023-05-10T20:45:48.163Z,11.99
2023-05-10T20:48:16.795Z,11.80
2023-05-10T20:50:44.760Z,11.60
2023-05-10T20:53:14.418Z,11.59
2023-05-10T20:55:42.371Z,11.67
2023-05-10T20:58:10.318Z,11.79
2023-05-10T21:00:38.271Z,11.71
2023-05-10T21:03:07.660Z,11.79
2023-05-10T21:05:36.155Z,11.84
2023-05-10T21:08:04.067Z,11.83
2023-05-10T21:10:31.977Z,11.90
2023-05-10T21:12:59.905Z,11.75
2023-05-10T21:15:27.826Z,11.62
2023-05-10T21:17:55.819Z,11.62
2023-05-10T21:20:25.269Z,11.54
2023-05-10T21:22:53.273Z,11.51
2023-05-10T21:25:21.166Z,11.52
2023-05-10T21:27:49.095Z,11.65
2023-05-10T21:30:17.289Z,11.55
2023-05-10T21:32:45.391Z,11.63
2023-05-10T21:35:13.262Z,11.65
2023-05-10T21:37:42.694Z,11.67
2023-05-10T21:40:11.882Z,11.79
2023-05-10T21:42:39.696Z,11.64
2023-05-10T21:45:08.554Z,11.67
2023-05-10T21:47:36.515Z,11.54
2023-05-10T21:50:04.499Z,11.62
2023-05-10T21:52:32.384Z,11.62
2023-05-10T21:55:01.551Z,11.63
2023-05-10T21:57:29.398Z,11.74
2023-05-10T21:59:57.325Z,11.70
2023-05-10T22:02:25.507Z,11.72
2023-05-10T22:04:53.416Z,11.72
2023-05-10T22:07:21.235Z,11.77
2023-05-10T22:09:49.081Z,11.77
2023-05-10T22:12:18.612Z,11.86
2023-05-10T22:14:47.495Z,11.93
2023-05-10T22:17:18.121Z,11.95
2023-05-10T22:19:45.996Z,12.01
2023-05-10T22:22:13.937Z,12.10
2023-05-10T22:24:41.792Z,12.08
2023-05-10T22:27:09.759Z,12.12
2023-05-10T22:29:39.056Z,11.97
2023-05-10T22:32:06.947Z,11.86
2023-05-10T22:34:35.471Z,11.91
2023-05-10T22:37:04.108Z,11.78
2023-05-10T22:39:31.918Z,11.81
2023-05-10T22:41:59.756Z,11.92
2023-05-10T22:44:27.706Z,11.80
2023-05-10T22:46:56.955Z,11.90
2023-05-10T22:49:24.798Z,11.82
2023-05-10T22:51:52.701Z,11.80
2023-05-10T22:54:20.678Z,11.76
2023-05-10T22:56:48.632Z,11.72
2023-05-10T22:59:16.708Z,11.62
2023-05-10T23:01:44.698Z,11.65
2023-05-10T23:04:14.038Z,11.64
2023-05-10T23:06:42.374Z,11.72
2023-05-10T23:09:10.360Z,11.60
2023-05-10T23:11:38.225Z,11.63
2023-05-10T23:14:06.230Z,11.62
2023-05-10T23:16:34.288Z,11.58
2023-05-10T23:19:02.299Z,11.63
2023-05-10T23:21:32.287Z,11.55
2023-05-10T23:24:00.677Z,11.47
2023-05-10T23:26:28.705Z,11.48
2023-05-10T23:28:56.832Z,11.40
2023-05-10T23:31:24.837Z,11.48
2023-05-10T23:33:52.808Z,11.37
2023-05-10T23:36:20.739Z,11.30
2023-05-10T23:38:50.070Z,11.30
2023-05-10T23:41:18.027Z,11.41
2023-05-10T23:43:45.940Z,11.45
2023-05-10T23:46:13.908Z,11.46
2023-05-10T23:48:41.857Z,11.42
2023-05-10T23:51:09.822Z,11.40
2023-05-10T23:53:37.797Z,11.41
2023-05-10T23:56:07.477Z,11.33
2023-05-10T23:58:35.419Z,11.23
